Latest Weather Observations for Brisbane Airport

IDQ60901

Issued at 6:15 pm EST Tuesday 27 January 2015 (issued every 10 minutes, with the page automatically refreshed every 10 minutes)

About weather observations | Map of Brisbane area stations | Latest observations for Brisbane area | Other Formats
Station Details ID: 040842 Name: BRISBANE AERO Lat: -27.39 Lon: 153.13 Height: 4.51 m
Data from the previous 72 hours. | See also: Recent months at Brisbane Airport
Date/Time
EST
Tmp

°C
App
Tmp
°C
Dew
Point
°C
Rel
Hum
%
Delta-T

°C
Wind Press
QNH
hPa
Press
MSL
hPa
Rain
since
9 am
mm
Dir
 
Spd
km/h
Gust
km/h
Spd
kts
Gust
kts
27/05:30pm 26.2 25.6 18.5 62 4.9 E 19 33 10 18 1005.0 - 0.0
27/05:00pm 26.5 26.3 19.4 65 4.6 ESE 19 30 10 16 1004.9 - 0.0
27/04:30pm 26.5 26.2 19.6 66 4.5 ESE 20 33 11 18 1004.7 - 0.0
27/04:00pm 26.9 26.9 20.2 66 4.4 E 20 32 11 17 1004.7 - 0.0
27/03:30pm 27.5 27.6 21.2 68 4.2 E 22 37 12 20 1005.0 - 0.0
27/03:00pm 27.1 27.4 20.7 68 4.2 E 20 32 11 17 1005.3 1005.3 0.0
27/02:30pm 28.4 28.8 21.0 64 4.9 E 20 30 11 16 1005.6 - 0.0
27/02:00pm 28.4 29.2 21.7 67 4.5 ESE 20 30 11 16 1005.8 - 0.0
27/01:30pm 27.7 28.1 20.7 65 4.6 E 19 30 10 16 1006.2 - 0.0
27/01:00pm 28.8 29.4 21.0 62 5.2 E 19 32 10 17 1006.4 - 0.0
27/12:30pm 28.1 28.5 21.0 65 4.7 E 20 32 11 17 1006.7 - 0.0
27/12:00pm 27.6 28.5 20.8 66 4.5 ESE 17 28 9 15 1007.2 1007.2 0.0
27/11:30am 28.3 28.4 21.1 65 4.8 ESE 22 33 12 18 1007.7 - 0.0
27/10:30am 27.6 27.5 20.0 63 5.0 ESE 20 35 11 19 1008.2 - 0.0
27/10:00am 28.4 29.5 21.9 68 4.4 ESE 19 30 10 16 1008.1 - 0.0
27/09:30am 28.0 29.2 22.2 70 3.9 ESE 19 30 10 16 1008.2 - 0.0
27/08:30am 27.0 28.0 21.0 69 4.0 ESE 17 26 9 14 1007.8 - 0.0
27/08:00am 27.7 29.4 21.7 70 4.0 E 15 24 8 13 1007.7 - 0.0
27/07:30am 27.2 28.8 21.5 71 3.8 E 15 22 8 12 1007.7 - 0.0
27/07:00am 26.8 28.5 21.6 73 3.5 E 15 22 8 12 1007.5 - 0.0
27/06:30am 26.5 28.8 22.0 76 3.0 E 13 20 7 11 1007.6 - 0.0
27/05:30am 25.4 28.2 21.5 79 2.6 E 9 15 5 8 1007.1 - 0.0
27/05:00am 25.5 27.5 21.6 79 2.6 ESE 13 17 7 9 1006.9 - 0.0
27/04:30am 25.6 27.5 21.4 77 2.8 ESE 13 20 7 11 1006.5 - 0.0
27/04:00am 25.6 27.0 21.1 76 3.0 ESE 15 28 8 15 1006.4 - 0.0
27/03:30am 25.4 27.2 21.2 77 2.8 ESE 13 24 7 13 1006.2 - 0.0
27/03:00am 25.7 26.9 21.5 77 2.8 ESE 17 26 9 14 1006.1 1006.1 0.0
27/02:30am 25.9 27.0 21.9 78 2.7 ESE 19 28 10 15 1005.9 - 0.0
27/02:00am 25.9 28.2 22.0 79 2.6 ESE 13 20 7 11 1006.3 - 0.0
27/01:30am 26.0 28.3 22.1 79 2.6 ESE 13 20 7 11 1006.4 - 0.0
27/01:00am 25.9 29.1 22.3 80 2.4 SE 9 17 5 9 1006.9 - 0.0
27/12:30am 26.1 29.0 22.4 80 2.5 E 11 17 6 9 1007.4 - 0.0
 
Date/Time
EST
Tmp

°C
App
Tmp
°C
Dew
Point
°C
Rel
Hum
%
Delta-T

°C
Wind Press
QNH
hPa
Press
MSL
hPa
Rain
since
9 am
mm
Dir
 
Spd
km/h
Gust
km/h
Spd
kts
Gust
kts
26/11:30pm 26.2 29.0 22.3 79 2.6 E 11 19 6 10 1008.2 - 0.0
26/11:00pm 26.3 28.6 22.1 77 2.8 ESE 13 19 7 10 1008.3 - 0.0
26/10:30pm 26.4 28.5 22.4 78 2.7 ESE 15 20 8 11 1008.3 - 0.0
26/10:00pm 26.5 28.7 21.9 76 3.1 ESE 13 20 7 11 1008.3 - 0.0
26/09:30pm 26.6 28.2 22.1 76 3.0 ESE 17 26 9 14 1008.4 - 0.0
26/09:00pm 26.6 28.1 22.0 76 3.1 ESE 17 28 9 15 1008.4 1008.4 0.0
26/08:30pm 26.8 28.9 22.4 77 3.0 SE 15 24 8 13 1008.6 - 0.0
26/08:00pm 26.9 28.1 22.1 75 3.2 ESE 19 30 10 16 1008.6 - 0.0
26/07:30pm 27.0 28.3 22.6 77 3.0 ESE 20 35 11 19 1008.2 - 0.0
26/07:00pm 27.1 28.7 22.8 77 2.9 SE 19 32 10 17 1008.0 - 0.0
26/06:30pm 27.2 28.7 23.1 78 2.8 ESE 20 32 11 17 1006.9 - 0.0
26/06:00pm 27.3 28.8 23.7 81 2.5 ESE 22 33 12 18 1006.3 1006.3 0.0
26/05:30pm 27.8 29.7 23.7 78 2.8 ESE 20 32 11 17 1006.4 - 0.0
26/05:00pm 28.1 31.3 24.4 80 2.6 ESE 15 28 8 15 1006.1 - 0.0
26/04:30pm 28.4 31.0 23.9 76 3.1 SE 17 26 9 14 1005.5 - 0.0
26/04:00pm 28.8 31.0 23.9 75 3.4 ESE 19 35 10 19 1005.3 - 0.0
26/03:30pm 29.8 31.4 22.9 66 4.7 E 19 30 10 16 1005.5 - 0.0
26/03:00pm 30.1 33.0 24.5 72 3.9 ESE 17 28 9 15 1005.3 1005.3 0.0
26/02:30pm 29.2 31.8 24.0 73 3.6 ESE 17 28 9 15 1005.3 - 0.0
26/02:00pm 29.4 32.5 24.8 76 3.2 E 17 30 9 16 1005.1 - 0.0
26/01:30pm 30.3 32.9 24.6 71 4.0 E 19 30 10 16 1005.3 - 0.0
26/01:00pm 30.2 33.3 24.8 73 3.8 ESE 17 30 9 16 1005.8 - 0.0
26/12:30pm 29.5 32.1 23.9 72 3.9 ESE 17 28 9 15 1005.9 - 0.0
26/12:00pm 28.6 31.3 24.1 76 3.1 ESE 17 30 9 16 1006.6 1006.6 0.0
26/11:30am 29.5 31.6 23.7 71 4.0 ESE 19 30 10 16 1006.7 - 0.0
26/11:00am 29.6 32.6 24.6 74 3.5 E 17 28 9 15 1006.9 - 0.0
26/10:30am 29.5 33.4 25.4 78 2.9 ENE 15 22 8 12 1007.0 - 0.0
26/10:00am 29.6 33.3 25.1 77 3.2 ENE 15 20 8 11 1006.9 - 0.0
26/09:30am 29.4 33.5 25.7 80 2.6 ENE 15 20 8 11 1007.0 - 0.0
26/09:00am 29.2 34.1 25.2 79 2.8 ESE 9 17 5 9 1007.1 1007.1 0.0
26/08:30am 29.1 34.3 25.1 79 2.8 NNW 7 11 4 6 1007.0 - 0.0
26/08:00am 28.0 33.1 24.6 82 2.4 NNW 6 11 3 6 1006.9 - 0.0
26/07:30am 27.3 31.4 24.0 82 2.3 SSW 9 13 5 7 1006.8 - 0.0
26/07:00am 26.6 31.2 24.1 86 1.7 SSE 7 13 4 7 1006.7 - 0.0
26/06:30am 26.1 30.9 24.1 89 1.4 SSE 6 7 3 4 1006.5 - 0.0
26/06:00am 25.4 30.5 24.1 92 0.9 SE 4 7 2 4 1006.1 1006.1 0.0
26/05:30am 25.5 31.3 24.6 95 0.6 ESE 2 7 1 4 1005.7 - 0.0
26/05:00am 25.8 30.9 24.9 95 0.6 SSE 7 11 4 6 1005.3 - 0.0
26/04:30am 25.9 30.8 25.2 96 0.5 S 9 11 5 6 1005.1 - 0.0
26/04:00am 26.0 32.7 25.4 96 0.4 CALM 0 0 0 0 1005.0 - 0.0
26/03:30am 26.4 33.4 25.8 96 0.4 CALM 0 0 0 0 1004.8 - 0.0
26/03:00am 26.6 32.5 25.9 96 0.5 ENE 6 7 3 4 1004.9 1004.9 0.0
26/02:30am 26.8 32.6 26.0 95 0.6 NE 7 9 4 5 1005.0 - 0.0
26/02:00am 26.8 32.2 26.0 95 0.6 NE 9 11 5 6 1005.1 - 0.0
26/01:30am 26.7 31.7 26.0 96 0.5 NE 11 13 6 7 1005.3 - 0.0
26/01:20am 26.7 32.0 25.9 95 0.6 ENE 9 11 5 6 1005.4 - 0.0
26/01:00am 26.8 33.9 26.0 95 0.6 CALM 0 0 0 0 1005.6 - 0.0
26/12:30am 27.0 33.7 26.0 94 0.7 E 2 9 1 5 1006.0 - 0.0
26/12:23am 27.0 34.1 26.0 94 0.7 CALM 0 0 0 0 1006.1 - 0.0
26/12:00am 26.8 33.1 26.0 95 0.6 E 4 9 2 5 1006.2 1006.2 0.0
 
Date/Time
EST
Tmp

°C
App
Tmp
°C
Dew
Point
°C
Rel
Hum
%
Delta-T

°C
Wind Press
QNH
hPa
Press
MSL
hPa
Rain
since
9 am
mm
Dir
 
Spd
km/h
Gust
km/h
Spd
kts
Gust
kts
25/11:30pm 26.9 32.7 26.1 95 0.6 ENE 7 7 4 4 1006.4 - 0.0
25/11:00pm 26.7 32.4 25.9 95 0.6 N 7 9 4 5 1005.9 - 0.0
25/10:30pm 27.2 33.2 26.1 94 0.8 E 6 7 3 4 1005.9 - 0.0
25/10:09pm 27.1 33.1 26.3 95 0.6 ESE 7 9 4 5 1006.0 - 0.0
25/10:00pm 27.0 33.0 26.0 94 0.7 ESE 6 9 3 5 1006.1 - 0.0
25/09:30pm 26.9 32.2 25.9 94 0.7 N 9 11 5 6 1006.1 - 0.0
25/09:00pm 26.9 31.5 25.9 94 0.7 N 13 19 7 10 1005.6 1005.6 0.0
25/08:30pm 27.0 31.2 26.0 94 0.7 N 15 19 8 10 1005.8 - 0.0
25/08:00pm 27.1 30.8 25.8 93 0.9 N 17 22 9 12 1005.6 - 0.0
25/07:30pm 27.1 30.8 25.7 92 1.0 NNE 17 24 9 13 1005.3 - 0.0
25/07:00pm 27.2 30.2 25.6 91 1.1 N 20 30 11 16 1004.6 - 0.0
25/06:30pm 27.3 29.2 25.6 90 1.2 N 26 32 14 17 1003.7 - 0.0
25/06:00pm 27.8 30.0 25.5 87 1.6 NNE 24 32 13 17 1003.3 1003.3 0.0
25/05:30pm 28.2 30.4 25.5 85 1.9 N 24 30 13 16 1002.9 - 0.0
25/05:00pm 28.7 31.2 25.3 82 2.4 N 22 28 12 15 1002.6 - 0.0
25/04:30pm 29.4 32.2 25.3 78 2.9 NNE 20 26 11 14 1002.6 - 0.0
25/04:00pm 29.3 31.8 25.9 82 2.4 N 24 30 13 16 1002.7 - 0.0
25/03:30pm 29.3 31.3 25.2 78 2.9 N 24 30 13 16 1003.0 - 0.0
25/03:00pm 29.6 31.0 24.8 75 3.4 NNE 26 30 14 16 1002.9 1002.9 0.0
25/02:30pm 30.1 32.2 25.3 75 3.4 N 24 32 13 17 1003.1 - 0.0
25/02:00pm 30.2 32.4 24.8 73 3.8 NNE 22 28 12 15 1003.3 - 0.0
25/01:30pm 29.9 31.2 24.0 70 4.1 NNE 24 30 13 16 1003.4 - 0.0
25/01:00pm 30.8 33.0 24.2 68 4.6 NNE 20 24 11 13 1003.6 - 0.0
25/12:30pm 31.0 33.6 24.0 66 4.9 NNE 17 20 9 11 1003.9 - 0.0
25/12:00pm 30.7 33.2 23.8 66 4.8 NNE 17 22 9 12 1004.3 1004.3 0.0
25/11:30am 30.4 33.8 24.1 69 4.4 NE 13 17 7 9 1004.6 - 0.0
25/11:00am 29.9 32.8 23.8 70 4.2 NNE 15 19 8 10 1005.1 - 0.0
25/10:30am 29.0 31.2 23.2 71 4.0 NNE 17 22 9 12 1005.4 - 0.0
25/10:00am 28.5 30.9 22.9 71 3.8 NNE 15 20 8 11 1005.7 - 0.0
25/09:30am 28.9 31.5 22.6 69 4.3 N 13 19 7 10 1006.0 - 0.0
25/09:00am 28.6 31.2 22.6 70 4.1 N 13 15 7 8 1006.2 1006.2 1.0
25/08:30am 27.8 30.0 21.8 70 4.0 N 13 17 7 9 1006.5 - 1.0
25/08:00am 27.2 29.9 21.3 70 3.9 NNW 9 13 5 7 1006.7 - 1.0
25/07:30am 26.2 29.3 21.5 75 3.1 NNW 7 11 4 6 1006.8 - 1.0
25/07:00am 25.0 28.0 21.2 79 2.5 NNW 7 9 4 5 1006.8 - 1.0
25/06:30am 23.8 26.7 21.1 85 1.8 WNW 7 9 4 5 1006.6 - 1.0
25/06:00am 22.8 25.8 21.3 91 1.0 NW 7 11 4 6 1006.2 1006.2 1.0
25/05:30am 21.8 26.0 20.9 95 0.6 CALM 0 6 0 3 1005.9 - 1.0
25/05:00am 22.1 25.9 20.9 93 0.8 NNW 2 7 1 4 1005.9 - 1.0
25/04:30am 22.2 25.3 21.1 93 0.7 NW 6 7 3 4 1006.0 - 1.0
25/04:00am 22.2 24.7 21.0 93 0.8 WNW 9 9 5 5 1005.8 - 1.0
25/03:30am 22.1 25.1 20.9 93 0.8 NW 6 7 3 4 1005.7 - 1.0
25/03:00am 22.4 25.2 20.9 91 1.0 WNW 7 9 4 5 1005.8 1005.8 1.0
25/02:30am 22.7 24.8 20.9 89 1.2 NW 11 11 6 6 1005.7 - 1.0
25/02:00am 22.7 24.4 21.0 90 1.1 NW 13 13 7 7 1005.8 - 1.0
25/01:30am 22.6 26.4 20.9 90 1.1 NW 2 7 1 4 1005.8 - 1.0
25/01:00am 22.8 25.9 21.1 90 1.1 W 6 9 3 5 1005.9 - 1.0
25/12:30am 22.9 26.4 21.1 89 1.2 WNW 4 7 2 4 1006.2 - 1.0
25/12:00am 23.2 27.1 21.1 88 1.4 WNW 2 7 1 4 1006.4 1006.4 1.0
 
Date/Time
EST
Tmp

°C
App
Tmp
°C
Dew
Point
°C
Rel
Hum
%
Delta-T

°C
Wind Press
QNH
hPa
Press
MSL
hPa
Rain
since
9 am
mm
Dir
 
Spd
km/h
Gust
km/h
Spd
kts
Gust
kts
24/11:30pm 23.1 26.3 21.3 90 1.2 W 6 9 3 5 1006.6 - 1.0
24/11:00pm 23.4 27.0 21.3 88 1.4 WNW 4 7 2 4 1006.8 - 1.0
24/10:30pm 23.1 27.5 21.4 90 1.1 CALM 0 0 0 0 1007.0 - 1.0
24/10:00pm 23.6 28.1 21.6 88 1.3 CALM 0 0 0 0 1006.9 - 1.0
24/09:30pm 23.9 28.4 21.5 86 1.6 CALM 0 0 0 0 1006.7 - 1.0
24/09:00pm 23.9 28.3 21.3 85 1.7 CALM 0 0 0 0 1006.5 1006.5 1.0
24/08:30pm 24.8 28.4 21.2 80 2.4 E 4 7 2 4 1006.2 - 1.0
24/08:00pm 25.0 28.0 21.2 79 2.5 E 7 11 4 6 1005.8 - 1.0
24/07:30pm 25.2 28.1 21.0 77 2.8 E 7 11 4 6 1005.5 - 1.0
24/07:00pm 25.6 28.1 21.1 76 3.0 E 9 15 5 8 1005.3 - 1.0
24/06:30pm 26.0 28.2 20.4 71 3.7 E 9 13 5 7 1005.2 - 1.0

Latest Capital City Observations: Canberra | Sydney | Melbourne | Brisbane | Adelaide | Perth | Hobart | Darwin

Other Formats:

Comma delimited format used in spreadsheet applications
http://www.bom.gov.au/fwo/IDQ60901/IDQ60901.94578.axf

JavaScript Object Notation format (JSON) in row-major order
http://www.bom.gov.au/fwo/IDQ60901/IDQ60901.94578.json